createdAt,value
2022-10-26T00:00:18.757Z,8.39
2022-10-26T00:01:18.782Z,8.44
2022-10-26T00:02:18.878Z,8.39
2022-10-26T00:03:18.707Z,8.44
2022-10-26T00:04:18.698Z,8.44
2022-10-26T00:05:18.715Z,8.51
2022-10-26T00:06:18.689Z,8.49
2022-10-26T00:07:18.669Z,8.45
2022-10-26T00:08:18.663Z,8.49
2022-10-26T00:09:18.659Z,8.48
2022-10-26T00:10:18.679Z,8.45
2022-10-26T00:11:18.649Z,8.39
2022-10-26T00:12:18.639Z,8.41
2022-10-26T00:13:18.621Z,8.42
2022-10-26T00:14:18.643Z,8.45
2022-10-26T00:15:18.630Z,8.51
2022-10-26T00:16:18.599Z,8.57
2022-10-26T00:17:18.589Z,8.51
2022-10-26T00:18:18.583Z,8.45
2022-10-26T00:19:18.580Z,8.59
2022-10-26T00:20:18.598Z,8.55
2022-10-26T00:21:18.558Z,8.51
2022-10-26T00:22:18.545Z,8.42
2022-10-26T00:23:18.537Z,8.34
2022-10-26T00:24:18.534Z,8.41
2022-10-26T00:25:18.551Z,8.38
2022-10-26T00:26:18.520Z,8.30
2022-10-26T00:27:18.507Z,8.33
2022-10-26T00:28:18.494Z,8.39
2022-10-26T00:29:18.485Z,8.38
2022-10-26T00:30:18.503Z,8.41
2022-10-26T00:31:18.465Z,8.45
2022-10-26T00:32:18.464Z,8.42
2022-10-26T00:33:18.448Z,8.44
2022-10-26T00:34:18.451Z,8.30
2022-10-26T00:35:28.869Z,8.42
2022-10-26T00:36:20.417Z,8.44
2022-10-26T00:37:18.418Z,8.44
2022-10-26T00:38:18.406Z,8.38
2022-10-26T00:39:18.400Z,8.36
2022-10-26T00:40:18.420Z,8.36
2022-10-26T00:41:18.380Z,8.39
2022-10-26T00:42:18.379Z,8.48
2022-10-26T00:43:18.364Z,8.44
2022-10-26T00:44:18.352Z,8.45
2022-10-26T00:45:18.383Z,8.49
2022-10-26T00:46:18.337Z,8.44
2022-10-26T00:47:18.340Z,8.54
2022-10-26T00:48:18.317Z,8.54
2022-10-26T00:50:18.334Z,8.57
2022-10-26T00:51:18.291Z,8.55
2022-10-26T00:52:18.279Z,8.57
2022-10-26T00:53:18.272Z,8.57
2022-10-26T00:54:18.270Z,8.60
2022-10-26T00:55:18.264Z,8.62
2022-10-26T00:56:18.277Z,8.69
2022-10-26T00:57:18.249Z,8.57
2022-10-26T00:58:18.234Z,8.66
2022-10-26T00:59:18.227Z,8.66
2022-10-26T01:00:18.217Z,8.57
2022-10-26T01:01:18.336Z,8.59
2022-10-26T01:02:18.200Z,8.64
2022-10-26T01:03:18.288Z,8.57
2022-10-26T01:04:18.188Z,8.57
2022-10-26T01:05:18.191Z,8.70
2022-10-26T01:06:18.199Z,8.67
2022-10-26T01:07:18.206Z,8.72
2022-10-26T01:08:18.151Z,8.77
2022-10-26T01:09:18.138Z,8.64
2022-10-26T01:10:18.131Z,8.63
2022-10-26T01:11:18.151Z,8.55
2022-10-26T01:12:18.118Z,8.72
2022-10-26T01:13:18.104Z,8.70
2022-10-26T01:14:18.115Z,8.69
2022-10-26T01:15:18.093Z,8.75
2022-10-26T01:16:18.118Z,8.64
2022-10-26T01:17:18.088Z,8.70
2022-10-26T01:18:18.072Z,8.72
2022-10-26T01:19:18.061Z,8.69
2022-10-26T01:20:18.060Z,8.75
2022-10-26T01:21:18.083Z,8.70
2022-10-26T01:22:18.038Z,8.91
2022-10-26T01:23:18.030Z,8.87
2022-10-26T01:24:18.014Z,8.85
2022-10-26T01:25:18.012Z,8.85
2022-10-26T01:26:18.033Z,8.84
2022-10-26T01:27:17.995Z,8.81
2022-10-26T01:28:18.005Z,8.91
2022-10-26T01:29:17.978Z,8.87
2022-10-26T01:30:17.977Z,8.88
2022-10-26T01:31:18.006Z,8.84
2022-10-26T01:32:17.951Z,8.90
2022-10-26T01:33:17.938Z,8.81
2022-10-26T01:34:17.931Z,8.77
2022-10-26T01:35:17.929Z,8.81
2022-10-26T01:36:17.944Z,8.87
2022-10-26T01:37:17.907Z,8.81
2022-10-26T01:38:17.900Z,8.82
2022-10-26T01:39:17.891Z,8.85
2022-10-26T01:40:17.880Z,8.85
2022-10-26T01:41:17.902Z,8.88
2022-10-26T01:42:17.868Z,8.84
2022-10-26T01:43:17.882Z,8.85
2022-10-26T01:44:17.848Z,8.78
2022-10-26T01:45:17.843Z,8.73
2022-10-26T01:47:17.831Z,8.77
2022-10-26T01:48:17.821Z,8.67
2022-10-26T01:49:17.811Z,8.63
2022-10-26T01:50:17.802Z,8.63
2022-10-26T01:51:17.825Z,8.62
2022-10-26T01:52:17.784Z,8.52
2022-10-26T01:53:17.775Z,8.55
2022-10-26T01:54:17.767Z,8.52
2022-10-26T01:55:17.751Z,8.55
2022-10-26T01:56:17.787Z,8.49
2022-10-26T01:57:17.735Z,8.47
2022-10-26T01:58:17.738Z,8.47
2022-10-26T01:59:17.724Z,8.48
2022-10-26T02:00:17.714Z,8.52
2022-10-26T02:01:17.762Z,8.48
2022-10-26T02:02:17.695Z,8.44
2022-10-26T02:03:17.713Z,8.47
2022-10-26T02:04:17.710Z,8.45
2022-10-26T02:05:18.671Z,8.48
2022-10-26T02:06:17.665Z,8.60
2022-10-26T02:07:17.682Z,8.52
2022-10-26T02:08:17.657Z,8.48
2022-10-26T02:09:17.636Z,8.57
2022-10-26T02:10:17.634Z,8.44
2022-10-26T02:11:17.627Z,8.47
2022-10-26T02:12:17.647Z,8.54
2022-10-26T02:13:17.604Z,8.57
2022-10-26T02:14:18.608Z,8.52
2022-10-26T02:15:17.595Z,8.54
2022-10-26T02:16:17.584Z,8.52
2022-10-26T02:17:17.606Z,8.52
2022-10-26T02:18:17.565Z,8.49
2022-10-26T02:19:17.557Z,8.48
2022-10-26T02:20:17.552Z,8.52
2022-10-26T02:21:17.542Z,8.51
2022-10-26T02:22:17.567Z,8.44
2022-10-26T02:23:17.529Z,8.42
2022-10-26T02:24:17.515Z,8.48
2022-10-26T02:25:17.505Z,8.48
2022-10-26T02:26:17.499Z,8.42
2022-10-26T02:27:17.513Z,8.45
2022-10-26T02:28:17.480Z,8.51
2022-10-26T02:29:17.473Z,8.59
2022-10-26T02:30:17.481Z,8.62
2022-10-26T02:31:17.476Z,8.55
2022-10-26T02:32:17.476Z,8.54
2022-10-26T02:33:17.464Z,8.62
2022-10-26T02:34:17.439Z,8.60
2022-10-26T02:35:17.427Z,8.63
2022-10-26T02:36:17.420Z,8.62
2022-10-26T02:37:17.438Z,8.69
2022-10-26T02:38:17.399Z,8.54
2022-10-26T02:39:17.395Z,8.57
2022-10-26T02:40:17.390Z,8.57
2022-10-26T02:41:17.381Z,8.59
2022-10-26T02:42:17.406Z,8.59
2022-10-26T02:43:17.360Z,8.57
2022-10-26T02:44:17.351Z,8.63
2022-10-26T02:45:17.342Z,8.55
2022-10-26T02:46:17.326Z,8.52
2022-10-26T02:47:17.371Z,8.55
2022-10-26T02:48:17.314Z,8.60
2022-10-26T02:49:17.312Z,8.49
2022-10-26T02:50:17.291Z,8.55
2022-10-26T02:51:18.314Z,8.52
2022-10-26T02:52:17.311Z,8.51
2022-10-26T02:53:17.270Z,8.54
2022-10-26T02:54:17.264Z,8.57
2022-10-26T02:55:17.248Z,8.44
2022-10-26T02:56:17.256Z,8.48
2022-10-26T02:57:17.243Z,8.41
2022-10-26T02:58:17.256Z,8.41
2022-10-26T02:59:17.220Z,8.44
2022-10-26T03:00:17.212Z,8.54
2022-10-26T03:01:17.234Z,8.59
2022-10-26T03:02:17.206Z,8.54
2022-10-26T03:03:17.219Z,8.49
2022-10-26T03:04:17.243Z,8.45
2022-10-26T03:05:17.178Z,8.42
2022-10-26T03:06:17.165Z,8.45
2022-10-26T03:07:17.154Z,8.47
2022-10-26T03:08:17.239Z,8.51
2022-10-26T03:09:17.135Z,8.44
2022-10-26T03:10:17.123Z,8.44
2022-10-26T03:11:18.119Z,8.42
2022-10-26T03:12:17.108Z,8.45
2022-10-26T03:13:17.127Z,8.51
2022-10-26T03:14:17.096Z,8.44
2022-10-26T03:15:17.082Z,8.47
2022-10-26T03:16:17.074Z,8.47
2022-10-26T03:17:17.068Z,8.45
2022-10-26T03:18:17.086Z,8.49
2022-10-26T03:19:17.051Z,8.55
2022-10-26T03:20:17.039Z,8.52
2022-10-26T03:21:17.038Z,8.55
2022-10-26T03:22:17.022Z,8.49
2022-10-26T03:23:17.042Z,8.59
2022-10-26T03:24:17.009Z,8.60
2022-10-26T03:25:17.009Z,8.49
2022-10-26T03:26:16.992Z,8.60
2022-10-26T03:27:17.003Z,8.60
2022-10-26T03:28:17.007Z,8.59
2022-10-26T03:29:16.973Z,8.54
2022-10-26T03:30:16.958Z,8.62
2022-10-26T03:31:16.958Z,8.57
2022-10-26T03:32:16.949Z,8.63
2022-10-26T03:33:16.989Z,8.55
2022-10-26T03:34:16.937Z,8.55
2022-10-26T03:35:16.911Z,8.55
2022-10-26T03:36:16.914Z,8.52
2022-10-26T03:37:16.901Z,8.57
2022-10-26T03:38:16.923Z,8.55
2022-10-26T03:39:16.888Z,8.60
2022-10-26T03:40:16.879Z,8.64
2022-10-26T03:41:16.869Z,8.57
2022-10-26T03:42:16.858Z,8.63
2022-10-26T03:43:16.874Z,8.69
2022-10-26T03:44:16.842Z,8.73
2022-10-26T03:45:16.833Z,8.63
2022-10-26T03:46:16.822Z,8.64
2022-10-26T03:47:16.823Z,8.70
2022-10-26T03:48:16.836Z,8.63
2022-10-26T03:49:16.801Z,8.64
2022-10-26T03:50:16.783Z,8.77
2022-10-26T03:51:17.785Z,8.73
2022-10-26T03:52:16.781Z,8.72
2022-10-26T03:53:16.796Z,8.72
2022-10-26T03:54:16.757Z,8.69
2022-10-26T03:55:16.748Z,8.73
2022-10-26T03:56:16.741Z,8.63
2022-10-26T03:57:16.733Z,8.64
2022-10-26T03:58:16.791Z,8.72
2022-10-26T03:59:16.723Z,8.72
2022-10-26T04:00:16.728Z,8.70
2022-10-26T04:01:16.739Z,8.78
2022-10-26T04:02:16.690Z,8.64
2022-10-26T04:03:16.712Z,8.75
2022-10-26T04:04:16.745Z,8.67
2022-10-26T04:05:16.726Z,8.70
2022-10-26T04:06:16.657Z,8.77
2022-10-26T04:07:16.636Z,8.72
2022-10-26T04:08:17.670Z,8.59
2022-10-26T04:09:16.635Z,8.73
2022-10-26T04:10:16.629Z,8.67
2022-10-26T04:11:16.614Z,8.67
2022-10-26T04:12:16.610Z,8.64
2022-10-26T04:13:16.632Z,8.77
2022-10-26T04:14:16.586Z,8.72
2022-10-26T04:15:16.577Z,8.67
2022-10-26T04:16:16.558Z,8.78
2022-10-26T04:17:17.598Z,8.67
2022-10-26T04:18:16.552Z,8.67
2022-10-26T04:19:16.575Z,8.69
2022-10-26T04:20:16.543Z,8.72
2022-10-26T04:21:16.533Z,8.70
2022-10-26T04:22:16.515Z,8.69
2022-10-26T04:23:16.583Z,8.73
2022-10-26T04:24:16.543Z,8.67
2022-10-26T04:25:16.487Z,8.77
2022-10-26T04:26:16.491Z,8.70
2022-10-26T04:27:16.491Z,8.75
2022-10-26T04:28:16.476Z,8.67
2022-10-26T04:29:16.492Z,8.78
2022-10-26T04:30:16.456Z,8.84
2022-10-26T04:31:16.446Z,8.80
2022-10-26T04:32:16.439Z,8.78
2022-10-26T04:33:16.430Z,8.84
2022-10-26T04:34:16.451Z,8.84
2022-10-26T04:35:16.414Z,8.84
2022-10-26T04:36:16.422Z,8.82
2022-10-26T04:37:16.402Z,8.84
2022-10-26T04:38:16.391Z,8.84
2022-10-26T04:39:16.406Z,8.82
2022-10-26T04:40:16.373Z,8.93
2022-10-26T04:41:16.358Z,8.87
2022-10-26T04:42:16.352Z,8.87
2022-10-26T04:43:16.340Z,8.81
2022-10-26T04:44:17.373Z,8.87
2022-10-26T04:45:16.332Z,8.85
2022-10-26T04:46:16.880Z,8.82
2022-10-26T04:47:16.311Z,8.82
2022-10-26T04:48:16.337Z,8.84
2022-10-26T04:49:16.322Z,8.95
2022-10-26T04:50:16.287Z,8.84
2022-10-26T04:51:16.272Z,8.82
2022-10-26T04:52:16.267Z,8.91
2022-10-26T04:53:16.258Z,8.88
2022-10-26T04:54:16.277Z,8.85
2022-10-26T04:55:16.240Z,8.87
2022-10-26T04:56:16.247Z,8.82
2022-10-26T04:57:16.228Z,8.78
2022-10-26T04:58:16.222Z,8.80
2022-10-26T04:59:16.240Z,8.82
2022-10-26T05:00:16.209Z,8.82
2022-10-26T05:01:16.243Z,8.66
2022-10-26T05:02:16.257Z,8.67
2022-10-26T05:03:16.252Z,8.69
2022-10-26T05:04:16.203Z,8.70
2022-10-26T05:05:16.167Z,8.73
2022-10-26T05:06:16.148Z,8.63
2022-10-26T05:07:16.161Z,8.69
2022-10-26T05:08:16.136Z,8.73
2022-10-26T05:09:16.166Z,8.67
2022-10-26T05:10:16.129Z,8.70
2022-10-26T05:11:16.106Z,8.60
2022-10-26T05:12:16.111Z,8.72
2022-10-26T05:13:16.130Z,8.73
2022-10-26T05:14:16.117Z,8.66
2022-10-26T05:15:16.076Z,8.73
2022-10-26T05:16:16.085Z,8.67
2022-10-26T05:17:16.064Z,8.70
2022-10-26T05:18:16.051Z,8.72
2022-10-26T05:19:16.074Z,8.70
2022-10-26T05:20:16.039Z,8.81
2022-10-26T05:21:16.017Z,8.78
2022-10-26T05:22:16.023Z,8.70
2022-10-26T05:23:16.004Z,8.77
2022-10-26T05:24:16.028Z,8.78
2022-10-26T05:25:15.991Z,8.75
2022-10-26T05:26:15.987Z,8.75
2022-10-26T05:27:15.977Z,8.84
2022-10-26T05:28:15.969Z,8.88
2022-10-26T05:29:15.989Z,8.81
2022-10-26T05:30:15.956Z,8.84
2022-10-26T05:31:15.945Z,8.80
2022-10-26T05:32:15.939Z,8.73
2022-10-26T05:33:15.939Z,8.90
2022-10-26T05:34:15.945Z,8.87
2022-10-26T05:35:15.913Z,8.84
2022-10-26T05:36:15.909Z,8.82
2022-10-26T05:37:15.899Z,8.91
2022-10-26T05:38:16.004Z,8.84
2022-10-26T05:39:15.906Z,8.82
2022-10-26T05:40:15.873Z,8.90
2022-10-26T05:41:15.864Z,8.90
2022-10-26T05:42:15.857Z,8.87
2022-10-26T05:43:15.846Z,8.96
2022-10-26T05:44:15.881Z,8.96
2022-10-26T05:45:15.827Z,9.02
2022-10-26T05:46:15.813Z,9.05
2022-10-26T05:47:15.814Z,8.96
2022-10-26T05:48:15.799Z,8.95
2022-10-26T05:49:15.823Z,8.96
2022-10-26T05:50:15.789Z,8.87
2022-10-26T05:51:15.785Z,8.99
2022-10-26T05:52:15.788Z,8.95
2022-10-26T05:53:15.756Z,8.88
2022-10-26T05:54:15.783Z,8.96
2022-10-26T05:55:15.754Z,9.00
2022-10-26T05:56:15.736Z,8.87
2022-10-26T05:57:15.728Z,9.03
2022-10-26T05:58:15.720Z,9.02
2022-10-26T05:59:15.748Z,8.96
2022-10-26T06:00:15.701Z,9.03
2022-10-26T06:01:15.749Z,8.95
2022-10-26T06:02:15.775Z,8.90
2022-10-26T06:03:15.676Z,8.98
2022-10-26T06:04:16.697Z,8.91
2022-10-26T06:05:15.702Z,8.99
2022-10-26T06:06:15.650Z,9.02
2022-10-26T06:07:15.645Z,8.93
2022-10-26T06:08:15.623Z,8.90
2022-10-26T06:09:15.666Z,8.98
2022-10-26T06:10:15.626Z,9.06
2022-10-26T06:11:15.610Z,9.14
2022-10-26T06:12:18.501Z,9.11
2022-10-26T06:13:15.594Z,9.14
2022-10-26T06:14:15.587Z,9.18
2022-10-26T06:15:15.607Z,9.15
2022-10-26T06:16:15.573Z,9.24
2022-10-26T06:17:15.565Z,9.22
2022-10-26T06:18:15.557Z,9.29
2022-10-26T06:19:15.547Z,9.29
2022-10-26T06:20:15.578Z,9.33
2022-10-26T06:21:15.533Z,9.39
2022-10-26T06:22:15.516Z,9.36
2022-10-26T06:23:15.519Z,9.37
2022-10-26T06:24:15.508Z,9.36
2022-10-26T06:25:15.528Z,9.46
2022-10-26T06:26:15.489Z,9.44
2022-10-26T06:27:18.570Z,9.49
2022-10-26T06:28:15.468Z,9.47
2022-10-26T06:29:15.468Z,9.46
2022-10-26T06:30:15.487Z,9.47
2022-10-26T06:31:15.443Z,9.44
2022-10-26T06:32:15.447Z,9.43
2022-10-26T06:33:28.901Z,9.42
2022-10-26T06:34:17.417Z,9.44
2022-10-26T06:35:15.440Z,9.51
2022-10-26T06:36:15.407Z,9.47
2022-10-26T06:37:15.405Z,9.57
2022-10-26T06:38:15.378Z,9.52
2022-10-26T06:39:15.376Z,9.46
2022-10-26T06:40:15.408Z,9.54
2022-10-26T06:41:15.353Z,9.70
2022-10-26T06:42:15.351Z,9.69
2022-10-26T06:43:15.339Z,9.69
2022-10-26T06:44:15.330Z,9.73
2022-10-26T06:46:15.358Z,9.83
2022-10-26T06:47:18.634Z,9.70
2022-10-26T06:48:16.296Z,9.79
2022-10-26T06:49:15.286Z,9.75
2022-10-26T06:50:15.317Z,9.79
2022-10-26T06:51:15.267Z,9.82
2022-10-26T06:52:15.304Z,9.88
2022-10-26T06:53:15.257Z,9.85
2022-10-26T06:54:15.250Z,9.86
2022-10-26T06:55:15.265Z,9.82
2022-10-26T06:56:15.239Z,9.80
2022-10-26T06:57:15.221Z,9.90
2022-10-26T06:58:15.229Z,9.90
2022-10-26T06:59:15.201Z,9.90
2022-10-26T07:00:15.316Z,9.98
2022-10-26T07:01:15.211Z,10.08
2022-10-26T07:02:15.274Z,10.04
2022-10-26T07:03:15.170Z,10.08
2022-10-26T07:04:15.161Z,10.09
2022-10-26T07:05:15.174Z,9.94
2022-10-26T07:06:15.238Z,9.94
2022-10-26T07:07:15.135Z,10.06
2022-10-26T07:08:15.128Z,10.13
2022-10-26T07:09:15.129Z,10.12
2022-10-26T07:10:15.143Z,10.16
2022-10-26T07:11:15.101Z,10.06
2022-10-26T07:12:15.096Z,10.12
2022-10-26T07:13:15.089Z,10.22
2022-10-26T07:14:15.076Z,10.23
2022-10-26T07:15:15.096Z,10.30
2022-10-26T07:16:15.053Z,10.37
2022-10-26T07:17:15.062Z,10.37
2022-10-26T07:18:15.037Z,10.43
2022-10-26T07:19:15.033Z,10.40
2022-10-26T07:20:15.094Z,10.34
2022-10-26T07:21:15.012Z,10.33
2022-10-26T07:22:15.002Z,10.37
2022-10-26T07:23:14.997Z,10.46
2022-10-26T07:24:15.008Z,10.56
2022-10-26T07:25:15.012Z,10.60
2022-10-26T07:26:14.968Z,10.56
2022-10-26T07:27:14.960Z,10.68
2022-10-26T07:28:14.969Z,10.72
2022-10-26T07:29:14.947Z,10.89
2022-10-26T07:30:14.953Z,10.77
2022-10-26T07:31:15.937Z,10.78
2022-10-26T07:32:14.920Z,10.87
2022-10-26T07:33:14.907Z,10.86
2022-10-26T07:34:14.894Z,10.82
2022-10-26T07:35:14.926Z,10.75
2022-10-26T07:36:14.879Z,10.77
2022-10-26T07:37:14.869Z,10.86
2022-10-26T07:38:14.863Z,10.93
2022-10-26T07:39:14.852Z,10.87
2022-10-26T07:40:14.896Z,10.93
2022-10-26T07:41:14.842Z,10.97
2022-10-26T07:42:14.828Z,11.07
2022-10-26T07:43:14.828Z,11.10
2022-10-26T07:44:14.817Z,11.05
2022-10-26T07:45:14.830Z,10.96
2022-10-26T07:46:14.793Z,10.85
2022-10-26T07:47:14.781Z,10.89
2022-10-26T07:48:14.779Z,11.01
2022-10-26T07:49:17.638Z,10.92
2022-10-26T07:50:14.796Z,10.96
2022-10-26T07:51:14.747Z,11.07
2022-10-26T07:52:14.744Z,11.03
2022-10-26T07:53:14.730Z,11.08
2022-10-26T07:54:14.722Z,11.07
2022-10-26T07:55:14.749Z,11.10
2022-10-26T07:56:14.714Z,11.04
2022-10-26T07:57:14.711Z,11.03
2022-10-26T07:58:14.708Z,10.96
2022-10-26T07:59:14.681Z,10.97
2022-10-26T08:00:14.679Z,10.96
2022-10-26T08:01:14.873Z,11.00
2022-10-26T08:02:14.658Z,11.04
2022-10-26T08:03:14.653Z,11.04
2022-10-26T08:04:14.648Z,11.17
2022-10-26T08:05:14.639Z,11.22
2022-10-26T08:06:14.641Z,11.17
2022-10-26T08:07:14.637Z,11.22
2022-10-26T08:08:14.601Z,11.23
2022-10-26T08:09:14.613Z,11.22
2022-10-26T08:10:14.640Z,11.26
2022-10-26T08:11:14.604Z,11.20
2022-10-26T08:12:14.566Z,11.25
2022-10-26T08:13:14.563Z,11.15
2022-10-26T08:14:14.549Z,11.12
2022-10-26T08:15:14.547Z,11.12
2022-10-26T08:16:14.564Z,11.25
2022-10-26T08:17:14.528Z,11.29
2022-10-26T08:18:14.517Z,11.22
2022-10-26T08:19:14.512Z,11.29
2022-10-26T08:20:14.506Z,11.29
2022-10-26T08:21:21.804Z,11.25
2022-10-26T08:22:15.518Z,11.22
2022-10-26T08:23:14.493Z,11.29
2022-10-26T08:24:14.481Z,11.23
2022-10-26T08:25:17.575Z,11.15
2022-10-26T08:26:16.451Z,11.10
2022-10-26T08:27:14.453Z,11.07
2022-10-26T08:28:14.431Z,11.04
2022-10-26T08:29:14.426Z,11.01
2022-10-26T08:30:14.450Z,10.96
2022-10-26T08:31:14.411Z,10.90
2022-10-26T08:32:14.407Z,10.96
2022-10-26T08:33:14.399Z,11.05
2022-10-26T08:34:14.381Z,11.01
2022-10-26T08:35:15.421Z,11.05
2022-10-26T08:36:14.379Z,11.11
2022-10-26T08:37:14.368Z,11.03
2022-10-26T08:38:14.356Z,11.08
2022-10-26T08:39:14.352Z,11.01
2022-10-26T08:40:14.341Z,11.14
2022-10-26T08:41:14.355Z,11.11
2022-10-26T08:42:14.342Z,11.14
2022-10-26T08:43:14.334Z,11.11
2022-10-26T08:44:14.307Z,11.19
2022-10-26T08:45:14.294Z,11.32
2022-10-26T08:46:15.327Z,11.30
2022-10-26T08:47:14.347Z,11.22
2022-10-26T08:48:14.286Z,11.29
2022-10-26T08:49:14.265Z,11.35
2022-10-26T08:50:14.258Z,11.35
2022-10-26T08:51:14.276Z,11.28
2022-10-26T08:52:14.238Z,11.26
2022-10-26T08:53:14.230Z,11.29
2022-10-26T08:54:14.216Z,11.26
2022-10-26T08:55:15.221Z,11.30
2022-10-26T08:56:14.257Z,11.30
2022-10-26T08:57:14.205Z,11.30
2022-10-26T08:58:14.192Z,11.41
2022-10-26T08:59:14.183Z,11.43
2022-10-26T09:00:14.179Z,11.47
2022-10-26T09:01:14.388Z,11.53
2022-10-26T09:02:14.167Z,11.46
2022-10-26T09:03:14.140Z,11.41
2022-10-26T09:04:14.133Z,11.50
2022-10-26T09:05:14.133Z,11.59
2022-10-26T09:06:14.183Z,11.54
2022-10-26T09:07:14.114Z,11.61
2022-10-26T09:08:14.105Z,11.69
2022-10-26T09:09:14.101Z,11.66
2022-10-26T09:10:14.176Z,11.65
2022-10-26T09:11:14.108Z,11.69
2022-10-26T09:12:14.069Z,11.77
2022-10-26T09:13:14.075Z,11.68
2022-10-26T09:14:14.056Z,11.84
2022-10-26T09:15:14.046Z,11.83
2022-10-26T09:16:14.055Z,11.81
2022-10-26T09:17:15.023Z,11.90
2022-10-26T09:18:14.018Z,11.87
2022-10-26T09:19:14.016Z,11.95
2022-10-26T09:20:14.004Z,12.03
2022-10-26T09:21:14.026Z,12.02
2022-10-26T09:22:13.982Z,12.05
2022-10-26T09:23:13.983Z,12.06
2022-10-26T09:24:13.975Z,12.02
2022-10-26T09:25:13.971Z,12.06
2022-10-26T09:26:13.973Z,11.95
2022-10-26T09:27:13.943Z,12.06
2022-10-26T09:28:14.929Z,12.13
2022-10-26T09:29:14.921Z,12.21
2022-10-26T09:30:13.912Z,12.27
2022-10-26T09:31:13.931Z,12.21
2022-10-26T09:32:13.898Z,12.36
2022-10-26T09:33:13.902Z,12.40
2022-10-26T09:34:13.882Z,12.33
2022-10-26T09:35:15.009Z,12.35
2022-10-26T09:36:16.784Z,12.27
2022-10-26T09:37:13.856Z,12.27
2022-10-26T09:38:13.856Z,12.25
2022-10-26T09:39:13.847Z,12.32
2022-10-26T09:40:13.832Z,12.32
2022-10-26T09:41:13.868Z,12.46
2022-10-26T09:42:13.818Z,12.46
2022-10-26T09:43:13.810Z,12.51
2022-10-26T09:44:13.801Z,12.54
2022-10-26T09:45:13.798Z,12.69
2022-10-26T09:46:13.838Z,12.64
2022-10-26T09:47:13.780Z,12.64
2022-10-26T09:48:13.760Z,12.85
2022-10-26T09:49:13.755Z,12.93
2022-10-26T09:50:13.748Z,13.00
2022-10-26T09:51:13.897Z,12.97
2022-10-26T09:52:13.729Z,13.08
2022-10-26T09:53:14.724Z,13.06
2022-10-26T09:54:13.721Z,13.08
2022-10-26T09:55:13.711Z,13.18
2022-10-26T09:56:13.703Z,13.27
2022-10-26T09:57:13.731Z,13.38
2022-10-26T09:58:13.682Z,13.27
2022-10-26T09:59:13.676Z,13.43
2022-10-26T10:00:13.668Z,13.49
2022-10-26T10:01:13.715Z,13.60
2022-10-26T10:02:13.703Z,13.71
2022-10-26T10:03:13.663Z,13.78
2022-10-26T10:04:13.642Z,13.78
2022-10-26T10:05:19.431Z,13.96
2022-10-26T10:06:15.658Z,13.96
2022-10-26T10:07:13.612Z,13.88
2022-10-26T10:08:13.598Z,14.08
2022-10-26T10:09:13.593Z,14.23
2022-10-26T10:10:13.593Z,14.40
2022-10-26T10:11:13.609Z,14.41
2022-10-26T10:12:13.572Z,14.44
2022-10-26T10:13:13.552Z,14.47
2022-10-26T10:14:13.553Z,14.53
2022-10-26T10:15:13.535Z,14.62
2022-10-26T10:16:13.569Z,14.56
2022-10-26T10:17:13.570Z,14.58
2022-10-26T10:18:13.523Z,14.78
2022-10-26T10:19:13.517Z,14.78
2022-10-26T10:20:13.501Z,14.84
2022-10-26T10:21:13.517Z,14.91
2022-10-26T10:22:13.488Z,14.84
2022-10-26T10:23:13.481Z,14.87
2022-10-26T10:24:13.470Z,15.02
2022-10-26T10:25:13.442Z,14.96
2022-10-26T10:26:14.507Z,14.87
2022-10-26T10:27:13.442Z,15.04
2022-10-26T10:28:13.464Z,15.03
2022-10-26T10:29:13.431Z,15.00
2022-10-26T10:30:13.412Z,14.91
2022-10-26T10:31:13.500Z,14.97
2022-10-26T10:32:13.396Z,14.85
2022-10-26T10:33:13.400Z,14.84
2022-10-26T10:34:13.374Z,14.82
2022-10-26T10:35:13.370Z,14.79
2022-10-26T10:36:13.398Z,15.04
2022-10-26T10:37:13.357Z,15.03
2022-10-26T10:38:13.349Z,15.03
2022-10-26T10:39:13.416Z,15.19
2022-10-26T10:40:15.391Z,15.32
2022-10-26T10:41:14.359Z,15.51
2022-10-26T10:42:13.317Z,15.70
2022-10-26T10:43:13.309Z,15.80
2022-10-26T10:44:13.299Z,15.95
2022-10-26T10:45:13.304Z,16.10
2022-10-26T10:46:13.278Z,16.50
2022-10-26T10:47:13.302Z,16.66
2022-10-26T10:48:13.262Z,16.90
2022-10-26T10:49:13.250Z,17.16
2022-10-26T10:50:13.258Z,16.87
2022-10-26T10:51:13.250Z,17.37
2022-10-26T10:52:13.261Z,17.64
2022-10-26T10:53:13.214Z,17.98
2022-10-26T10:54:13.211Z,18.34
2022-10-26T10:55:13.197Z,18.83
2022-10-26T10:56:13.196Z,19.56
2022-10-26T10:57:13.215Z,19.70
2022-10-26T10:58:13.177Z,20.21
2022-10-26T10:59:13.179Z,20.37
2022-10-26T11:00:13.177Z,20.00
2022-10-26T11:01:13.252Z,20.65
2022-10-26T11:02:13.242Z,20.74
2022-10-26T11:03:13.138Z,20.56
2022-10-26T11:05:13.119Z,19.36
2022-10-26T11:06:13.152Z,19.18
2022-10-26T11:07:13.101Z,18.88
2022-10-26T11:08:13.091Z,18.62
2022-10-26T11:09:13.079Z,18.78
2022-10-26T11:10:13.072Z,18.92
2022-10-26T11:11:13.102Z,19.14
2022-10-26T11:12:13.090Z,19.37
2022-10-26T11:13:13.044Z,19.56
2022-10-26T11:14:14.045Z,19.70
2022-10-26T11:15:13.036Z,20.06
2022-10-26T11:16:13.072Z,20.67
2022-10-26T11:17:13.019Z,21.92
2022-10-26T11:18:13.021Z,22.96
2022-10-26T11:19:13.002Z,23.73
2022-10-26T11:20:15.097Z,24.37
2022-10-26T11:21:13.022Z,24.91
2022-10-26T11:22:12.975Z,25.33
2022-10-26T11:23:12.967Z,25.66
2022-10-26T11:24:12.963Z,25.55
2022-10-26T11:25:12.952Z,25.62
2022-10-26T11:26:12.955Z,25.69
2022-10-26T11:27:12.967Z,25.67
2022-10-26T11:28:12.940Z,25.55
2022-10-26T11:29:12.983Z,25.92
2022-10-26T11:30:12.915Z,26.07
2022-10-26T11:31:12.904Z,26.15
2022-10-26T11:32:12.926Z,26.31
2022-10-26T11:33:12.902Z,26.59
2022-10-26T11:34:12.877Z,26.75
2022-10-26T11:35:12.865Z,26.67
2022-10-26T11:36:12.863Z,25.69
2022-10-26T11:37:12.892Z,24.70
2022-10-26T11:38:12.839Z,24.62
2022-10-26T11:39:12.846Z,25.23
2022-10-26T11:40:12.949Z,26.12
2022-10-26T11:41:12.851Z,26.37
2022-10-26T11:42:12.820Z,26.57
2022-10-26T11:43:12.811Z,27.04
2022-10-26T11:44:12.812Z,27.45
2022-10-26T11:45:12.792Z,27.48
2022-10-26T11:46:15.214Z,27.77
2022-10-26T11:47:13.778Z,27.68
2022-10-26T11:48:12.777Z,27.37
2022-10-26T11:49:12.769Z,27.18
2022-10-26T11:50:16.278Z,27.30
2022-10-26T11:51:12.781Z,27.54
2022-10-26T11:52:12.772Z,27.44
2022-10-26T11:53:12.726Z,27.15
2022-10-26T11:54:12.776Z,26.72
2022-10-26T11:55:12.735Z,27.05
2022-10-26T11:56:12.738Z,27.18
2022-10-26T11:57:12.709Z,27.44
2022-10-26T11:58:12.700Z,27.37
2022-10-26T11:59:12.693Z,27.55
2022-10-26T12:00:12.683Z,27.77
2022-10-26T12:01:12.787Z,27.67
2022-10-26T12:02:12.665Z,27.24
2022-10-26T12:03:12.661Z,27.18
2022-10-26T12:04:12.664Z,27.51
2022-10-26T12:05:12.650Z,27.54
2022-10-26T12:06:12.687Z,27.18
2022-10-26T12:07:12.633Z,27.14
2022-10-26T12:08:12.626Z,27.41
2022-10-26T12:09:12.618Z,27.15
2022-10-26T12:10:12.614Z,27.27
2022-10-26T12:11:12.793Z,26.68
2022-10-26T12:12:12.601Z,26.53
2022-10-26T12:13:12.596Z,26.55
2022-10-26T12:14:12.583Z,26.62
2022-10-26T12:15:12.566Z,26.82
2022-10-26T12:16:12.602Z,27.27
2022-10-26T12:17:12.557Z,27.34
2022-10-26T12:18:12.556Z,27.26
2022-10-26T12:19:12.544Z,27.52
2022-10-26T12:20:12.538Z,27.27
2022-10-26T12:21:12.527Z,26.93
2022-10-26T12:22:12.559Z,26.38
2022-10-26T12:23:19.033Z,26.18
2022-10-26T12:24:14.511Z,26.37
2022-10-26T12:25:14.991Z,26.25
2022-10-26T12:26:13.490Z,26.18
2022-10-26T12:27:12.522Z,25.95
2022-10-26T12:28:12.492Z,25.74
2022-10-26T12:29:12.474Z,25.74
2022-10-26T12:30:12.468Z,25.70
2022-10-26T12:31:12.459Z,26.26
2022-10-26T12:32:12.480Z,26.56
2022-10-26T12:33:12.437Z,25.81
2022-10-26T12:34:12.431Z,26.03
2022-10-26T12:35:12.425Z,26.18
2022-10-26T12:36:12.435Z,26.04
2022-10-26T12:37:12.439Z,26.33
2022-10-26T12:38:12.400Z,25.90
2022-10-26T12:39:12.395Z,25.87
2022-10-26T12:40:12.389Z,25.81
2022-10-26T12:41:12.375Z,26.16
2022-10-26T12:42:12.403Z,25.85
2022-10-26T12:43:12.366Z,24.21
2022-10-26T12:44:12.356Z,22.95
2022-10-26T12:45:12.354Z,22.36
2022-10-26T12:46:12.360Z,22.40
2022-10-26T12:47:12.363Z,22.33
2022-10-26T12:48:27.773Z,23.07
2022-10-26T12:49:14.321Z,24.20
2022-10-26T12:50:12.312Z,24.82
2022-10-26T12:51:12.307Z,24.70
2022-10-26T12:52:12.325Z,24.00
2022-10-26T12:53:12.288Z,23.33
2022-10-26T12:54:12.279Z,23.06
2022-10-26T12:55:12.277Z,23.07
2022-10-26T12:56:12.261Z,22.88
2022-10-26T12:57:12.281Z,22.87
2022-10-26T12:58:12.254Z,22.47
2022-10-26T12:59:12.239Z,22.15
2022-10-26T13:00:12.227Z,22.10
2022-10-26T13:01:12.274Z,21.88
2022-10-26T13:02:12.247Z,21.59
2022-10-26T13:03:12.205Z,21.20
2022-10-26T13:04:12.205Z,21.03
2022-10-26T13:05:12.193Z,21.05
2022-10-26T13:06:12.183Z,20.97
2022-10-26T13:07:12.170Z,20.82
2022-10-26T13:08:12.201Z,20.65
2022-10-26T13:09:14.109Z,20.44
2022-10-26T13:10:13.153Z,20.47